Time;durP1;ratioP1;P1;durP2;ratioP2;P2;SDS_P1;SDS_P2;PMS_P1;PMS_P2;Temp;Humidity;BMP_temperature;BMP_pressure;BME280_temperature;BME280_humidity;BME280_pressure;Samples;Min_cycle;Max_cycle;Signal;HPM_P1;HPM_P2
2022/05/05 00:01:10;;;;;;;5.72;4.20;;;;;;;;;;6297941;22;20022;-49
2022/05/05 00:03:35;;;;;;;5.82;3.95;;;;;;;;;;6295455;22;20022;-45
2022/05/05 00:06:01;;;;;;;5.85;3.72;;;;;;;;;;6298150;22;20009;-45
2022/05/05 00:08:26;;;;;;;8.13;4.47;;;;;;;;;;6295199;22;20018;-47
2022/05/05 00:16:39;;;;;;;8.00;4.43;;;;;;;;;;6170190;23;20454;-44
2022/05/05 00:19:04;;;;;;;8.30;3.83;;;;;;;;;;6172216;23;20024;-48
2022/05/05 00:21:30;;;;;;;5.32;3.70;;;;;;;;;;6226019;22;20012;-44
2022/05/05 00:23:55;;;;;;;18.17;3.95;;;;;;;;;;6297802;22;20015;-45
2022/05/05 00:26:20;;;;;;;6.30;3.95;;;;;;;;;;6294842;22;20223;-45
2022/05/05 00:28:46;;;;;;;7.22;4.05;;;;;;;;;;6299363;22;20007;-49
2022/05/05 00:31:11;;;;;;;5.38;3.78;;;;;;;;;;6298202;22;20080;-45
2022/05/05 00:33:36;;;;;;;6.72;4.38;;;;;;;;;;6300349;22;20027;-46
2022/05/05 00:36:02;;;;;;;6.78;4.88;;;;;;;;;;6298111;22;20023;-47
2022/05/05 00:38:28;;;;;;;10.25;4.05;;;;;;;;;;6299038;22;20018;-47
2022/05/05 00:40:53;;;;;;;5.60;4.32;;;;;;;;;;6297749;22;20318;-46
2022/05/05 00:43:19;;;;;;;6.15;4.15;;;;;;;;;;6299143;22;20116;-48
2022/05/05 00:45:44;;;;;;;6.25;4.22;;;;;;;;;;6298081;22;20014;-45
2022/05/05 00:48:09;;;;;;;6.45;3.85;;;;;;;;;;6298665;22;20042;-47
2022/05/05 00:50:36;;;;;;;12.63;4.25;;;;;;;;;;6297332;22;20340;-44
2022/05/05 00:53:02;;;;;;;8.38;4.55;;;;;;;;;;6272277;22;20071;-46
2022/05/05 00:55:31;;;;;;;11.32;5.68;;;;;;;;;;6296943;22;20014;-44
2022/05/05 00:57:56;;;;;;;7.85;4.20;;;;;;;;;;6300335;22;20012;-45
2022/05/05 01:00:21;;;;;;;6.57;4.28;;;;;;;;;;6296980;22;20018;-44
2022/05/05 01:02:47;;;;;;;11.13;4.55;;;;;;;;;;6293547;22;20036;-45
2022/05/05 01:05:12;;;;;;;9.48;5.00;;;;;;;;;;6297529;22;20045;-47
2022/05/05 01:07:38;;;;;;;9.00;5.15;;;;;;;;;;6297759;22;19999;-50
2022/05/05 01:10:03;;;;;;;5.65;3.90;;;;;;;;;;6297637;22;20026;-46
2022/05/05 01:12:31;;;;;;;8.25;4.15;;;;;;;;;;6298630;22;20100;-47
2022/05/05 01:14:58;;;;;;;7.57;4.80;;;;;;;;;;6298761;22;20019;-45
2022/05/05 01:17:23;;;;;;;15.38;4.75;;;;;;;;;;6296606;22;20007;-46
2022/05/05 01:19:48;;;;;;;6.53;4.85;;;;;;;;;;6297741;22;20003;-45
2022/05/05 01:22:15;;;;;;;7.30;4.60;;;;;;;;;;6298564;22;20014;-45
2022/05/05 01:30:08;;;;;;;7.97;5.78;;;;;;;;;;6298719;22;20445;-46
2022/05/05 01:32:33;;;;;;;9.52;5.28;;;;;;;;;;6296212;22;20015;-45
2022/05/05 01:34:59;;;;;;;7.20;4.60;;;;;;;;;;6300598;22;20067;-45
2022/05/05 01:37:24;;;;;;;11.80;6.05;;;;;;;;;;6297749;22;20007;-45
2022/05/05 01:39:49;;;;;;;7.95;5.15;;;;;;;;;;6296587;22;20043;-47
2022/05/05 01:42:15;;;;;;;8.63;5.15;;;;;;;;;;6297815;22;20015;-45
2022/05/05 01:44:41;;;;;;;7.60;5.13;;;;;;;;;;6298357;22;20007;-44
2022/05/05 01:47:06;;;;;;;9.07;5.32;;;;;;;;;;6296775;22;20026;-46
2022/05/05 01:49:31;;;;;;;6.68;4.72;;;;;;;;;;6297236;22;20611;-44
2022/05/05 01:51:57;;;;;;;9.73;5.40;;;;;;;;;;6298311;22;20691;-45
2022/05/05 01:54:23;;;;;;;9.10;5.03;;;;;;;;;;6269489;22;20040;-44
2022/05/05 01:56:48;;;;;;;7.40;5.10;;;;;;;;;;6298271;22;20018;-46
2022/05/05 01:59:13;;;;;;;8.95;4.57;;;;;;;;;;6297392;22;20043;-46
2022/05/05 02:01:39;;;;;;;10.30;4.95;;;;;;;;;;6297937;22;20010;-45
2022/05/05 02:04:04;;;;;;;7.70;4.85;;;;;;;;;;6298049;22;20007;-45
2022/05/05 02:06:29;;;;;;;7.95;5.55;;;;;;;;;;6297997;22;20015;-45
2022/05/05 02:08:57;;;;;;;7.13;5.07;;;;;;;;;;6271043;22;20452;-44
2022/05/05 02:11:22;;;;;;;7.03;4.20;;;;;;;;;;6296845;22;20110;-44
2022/05/05 02:13:47;;;;;;;7.85;4.65;;;;;;;;;;6298777;22;19999;-45
2022/05/05 02:16:12;;;;;;;9.48;5.15;;;;;;;;;;6294784;22;20035;-45
2022/05/05 02:18:38;;;;;;;6.43;4.45;;;;;;;;;;6297635;22;20018;-49
2022/05/05 02:21:03;;;;;;;7.57;4.72;;;;;;;;;;6297952;22;20007;-44
2022/05/05 02:23:28;;;;;;;10.07;5.05;;;;;;;;;;6295591;22;20007;-44
2022/05/05 02:25:53;;;;;;;7.05;5.00;;;;;;;;;;6299671;22;20070;-45
2022/05/05 02:28:19;;;;;;;6.80;4.70;;;;;;;;;;6294448;22;20035;-45
2022/05/05 02:30:44;;;;;;;8.10;5.05;;;;;;;;;;6297047;22;20034;-45
2022/05/05 02:33:09;;;;;;;9.00;5.07;;;;;;;;;;6296341;22;20026;-46
2022/05/05 02:35:34;;;;;;;8.52;5.68;;;;;;;;;;6297112;22;20007;-45
2022/05/05 02:40:44;;;;;;;12.35;6.35;;;;;;;;;;6295233;22;20018;-45
2022/05/05 02:43:09;;;;;;;10.10;7.13;;;;;;;;;;6297053;22;20015;-47
2022/05/05 02:45:34;;;;;;;13.20;6.13;;;;;;;;;;6295283;22;20401;-45
2022/05/05 02:48:00;;;;;;;9.52;5.05;;;;;;;;;;6296468;22;20022;-44
2022/05/05 02:50:26;;;;;;;7.70;5.50;;;;;;;;;;6294598;22;20011;-44
2022/05/05 02:52:52;;;;;;;10.15;5.45;;;;;;;;;;6296510;22;20007;-44
2022/05/05 02:55:17;;;;;;;10.20;5.95;;;;;;;;;;6296698;22;20057;-48
2022/05/05 02:57:42;;;;;;;11.43;6.03;;;;;;;;;;6296782;22;20684;-45
2022/05/05 03:00:11;;;;;;;8.35;5.63;;;;;;;;;;6296002;22;20097;-45
2022/05/05 03:02:36;;;;;;;13.88;4.95;;;;;;;;;;6295825;22;20015;-43
2022/05/05 03:05:01;;;;;;;13.18;5.90;;;;;;;;;;6296749;22;20011;-45
2022/05/05 03:07:27;;;;;;;7.60;4.90;;;;;;;;;;6289156;22;20015;-44
2022/05/05 03:09:52;;;;;;;10.32;6.00;;;;;;;;;;6294943;22;20232;-45
2022/05/05 03:12:17;;;;;;;8.90;5.30;;;;;;;;;;6296506;22;20019;-47
2022/05/05 03:14:46;;;;;;;8.43;4.90;;;;;;;;;;6297281;22;20081;-44
2022/05/05 03:17:12;;;;;;;9.73;5.68;;;;;;;;;;6295137;22;20605;-44
2022/05/05 03:19:37;;;;;;;12.07;5.25;;;;;;;;;;6297088;22;20327;-45
2022/05/05 03:22:03;;;;;;;9.43;5.93;;;;;;;;;;6295315;22;20156;-48
2022/05/05 03:24:28;;;;;;;7.60;5.53;;;;;;;;;;6296404;22;20343;-47
2022/05/05 03:26:53;;;;;;;15.38;5.72;;;;;;;;;;6296307;22;20015;-45
2022/05/05 03:29:19;;;;;;;14.02;6.38;;;;;;;;;;6294526;22;20015;-45
2022/05/05 03:31:44;;;;;;;15.05;6.38;;;;;;;;;;6297429;22;20212;-45
2022/05/05 03:34:09;;;;;;;9.68;5.28;;;;;;;;;;6295356;22;20551;-44
2022/05/05 03:36:35;;;;;;;9.95;6.30;;;;;;;;;;6296587;22;20059;-44
2022/05/05 03:39:00;;;;;;;11.27;6.13;;;;;;;;;;6295274;22;20585;-45
2022/05/05 03:41:25;;;;;;;10.02;5.70;;;;;;;;;;6296224;22;20645;-46
2022/05/05 03:43:52;;;;;;;8.75;5.18;;;;;;;;;;6297499;22;20011;-45
2022/05/05 03:46:17;;;;;;;9.18;6.05;;;;;;;;;;6293967;22;20008;-49
2022/05/05 03:48:42;;;;;;;10.50;5.68;;;;;;;;;;6296529;22;20015;-43
2022/05/05 03:51:08;;;;;;;10.85;6.38;;;;;;;;;;6295222;22;20061;-44
2022/05/05 03:53:33;;;;;;;8.50;6.40;;;;;;;;;;6297172;22;20279;-44
2022/05/05 03:55:58;;;;;;;11.35;5.88;;;;;;;;;;6295442;22;20223;-45
2022/05/05 03:58:25;;;;;;;13.05;6.13;;;;;;;;;;6296403;22;20011;-45
2022/05/05 04:00:50;;;;;;;7.47;5.75;;;;;;;;;;6295656;22;20011;-45
2022/05/05 04:03:31;;;;;;;13.68;6.68;;;;;;;;;;6295858;22;20035;-44
2022/05/05 04:05:59;;;;;;;12.38;6.38;;;;;;;;;;6294649;22;20037;-44
2022/05/05 04:08:28;;;;;;;11.82;6.40;;;;;;;;;;6296487;22;20015;-44
2022/05/05 04:10:53;;;;;;;9.45;6.15;;;;;;;;;;6295032;22;20019;-46
2022/05/05 04:13:19;;;;;;;8.93;6.07;;;;;;;;;;6296900;22;20007;-48
2022/05/05 04:15:44;;;;;;;13.93;7.47;;;;;;;;;;6295036;22;20029;-44
2022/05/05 04:18:09;;;;;;;11.23;6.50;;;;;;;;;;6297650;22;20097;-45
2022/05/05 04:20:35;;;;;;;14.20;7.75;;;;;;;;;;6294264;22;20007;-45
2022/05/05 04:23:00;;;;;;;13.63;7.10;;;;;;;;;;6297484;22;20015;-44
2022/05/05 04:25:25;;;;;;;13.90;7.07;;;;;;;;;;6267668;22;20018;-46
2022/05/05 04:27:51;;;;;;;18.48;8.27;;;;;;;;;;6297389;22;20402;-45
2022/05/05 04:30:16;;;;;;;10.75;6.60;;;;;;;;;;6294343;22;20011;-46
2022/05/05 04:32:45;;;;;;;17.38;7.53;;;;;;;;;;6297860;22;20015;-45
2022/05/05 04:35:11;;;;;;;12.32;7.30;;;;;;;;;;6294839;22;20007;-45
2022/05/05 04:37:36;;;;;;;13.70;7.05;;;;;;;;;;6296343;22;20063;-45
2022/05/05 04:40:01;;;;;;;11.77;6.95;;;;;;;;;;6295035;22;20008;-46
2022/05/05 04:42:27;;;;;;;7.82;6.47;;;;;;;;;;6297207;22;20038;-46
2022/05/05 04:44:52;;;;;;;10.55;6.57;;;;;;;;;;6295026;22;20015;-45
2022/05/05 04:47:17;;;;;;;11.18;7.25;;;;;;;;;;6295621;22;20007;-48
2022/05/05 04:49:43;;;;;;;12.25;6.95;;;;;;;;;;6295362;22;20007;-44
2022/05/05 04:52:08;;;;;;;10.93;7.18;;;;;;;;;;6297227;22;20015;-45
2022/05/05 04:54:33;;;;;;;10.23;6.65;;;;;;;;;;6295008;22;20015;-44
2022/05/05 04:56:58;;;;;;;11.77;7.43;;;;;;;;;;6297465;22;20010;-47
2022/05/05 04:59:24;;;;;;;11.40;7.13;;;;;;;;;;6294668;22;20015;-45
2022/05/05 05:01:49;;;;;;;14.10;7.22;;;;;;;;;;6296943;22;20819;-45
2022/05/05 05:04:14;;;;;;;10.57;6.28;;;;;;;;;;6294550;22;20012;-44
2022/05/05 05:06:39;;;;;;;20.73;8.43;;;;;;;;;;6296483;22;20011;-45
2022/05/05 05:09:04;;;;;;;12.23;7.38;;;;;;;;;;6294111;22;20019;-44
2022/05/05 05:11:30;;;;;;;14.23;7.50;;;;;;;;;;6296457;22;20028;-44
2022/05/05 05:13:55;;;;;;;12.48;6.93;;;;;;;;;;6297380;22;20007;-46
2022/05/05 05:16:20;;;;;;;12.48;7.18;;;;;;;;;;6298203;22;20102;-46
2022/05/05 05:18:47;;;;;;;13.60;6.78;;;;;;;;;;6297257;22;20007;-45
2022/05/05 05:21:12;;;;;;;10.18;6.50;;;;;;;;;;6297914;22;20011;-50
2022/05/05 05:23:37;;;;;;;11.05;6.30;;;;;;;;;;6296501;22;20015;-48
2022/05/05 05:26:02;;;;;;;15.13;7.60;;;;;;;;;;6298708;22;20051;-44
2022/05/05 05:28:28;;;;;;;11.43;6.55;;;;;;;;;;6295845;22;20460;-44
2022/05/05 05:30:53;;;;;;;15.38;7.57;;;;;;;;;;6298294;22;20397;-45
2022/05/05 05:33:18;;;;;;;10.23;6.03;;;;;;;;;;6295966;22;20018;-45
2022/05/05 05:35:47;;;;;;;12.95;7.85;;;;;;;;;;6299534;22;20033;-44
2022/05/05 05:38:17;;;;;;;13.20;6.70;;;;;;;;;;6296340;22;20013;-47
2022/05/05 05:40:42;;;;;;;12.52;6.20;;;;;;;;;;6299272;22;20087;-47
2022/05/05 05:43:08;;;;;;;13.45;7.57;;;;;;;;;;6296893;22;20022;-45
2022/05/05 05:45:33;;;;;;;14.73;7.38;;;;;;;;;;6270835;22;20054;-43
2022/05/05 05:47:58;;;;;;;11.88;6.90;;;;;;;;;;6295704;22;20018;-45
2022/05/05 05:50:24;;;;;;;15.02;8.73;;;;;;;;;;6298058;22;20011;-45
2022/05/05 05:52:49;;;;;;;11.85;7.07;;;;;;;;;;6296855;22;20063;-45
2022/05/05 05:55:15;;;;;;;19.90;7.63;;;;;;;;;;6297242;22;20086;-45
2022/05/05 05:57:40;;;;;;;12.32;6.63;;;;;;;;;;6295547;22;20011;-44
2022/05/05 06:00:06;;;;;;;11.68;6.32;;;;;;;;;;6271397;22;20033;-46
2022/05/05 06:05:15;;;;;;;13.60;8.02;;;;;;;;;;6297550;22;20018;-44
2022/05/05 06:07:41;;;;;;;12.88;6.07;;;;;;;;;;6296617;22;20015;-47
2022/05/05 06:10:06;;;;;;;9.93;5.40;;;;;;;;;;6298279;22;20017;-44
2022/05/05 06:12:31;;;;;;;11.98;6.90;;;;;;;;;;6295479;22;20046;-47
2022/05/05 06:14:57;;;;;;;10.00;5.55;;;;;;;;;;6298856;22;20027;-46
2022/05/05 06:17:22;;;;;;;12.90;6.35;;;;;;;;;;6295076;22;20003;-49
2022/05/05 06:19:47;;;;;;;8.20;5.78;;;;;;;;;;6299064;22;20007;-47
2022/05/05 06:22:13;;;;;;;16.23;7.25;;;;;;;;;;6295756;22;20008;-46
2022/05/05 06:24:38;;;;;;;13.82;6.43;;;;;;;;;;6298619;22;20029;-48
2022/05/05 06:27:03;;;;;;;12.10;6.85;;;;;;;;;;6295535;22;20059;-46
2022/05/05 06:29:30;;;;;;;12.65;7.22;;;;;;;;;;6298560;22;20004;-46
2022/05/05 06:31:55;;;;;;;12.60;7.18;;;;;;;;;;6294734;22;20023;-45
2022/05/05 06:34:21;;;;;;;10.73;8.02;;;;;;;;;;6297443;22;20007;-45
2022/05/05 06:36:46;;;;;;;12.48;6.95;;;;;;;;;;6297203;22;20015;-46
2022/05/05 06:39:11;;;;;;;16.27;8.20;;;;;;;;;;6297998;22;20003;-46
2022/05/05 06:41:36;;;;;;;17.00;7.95;;;;;;;;;;6294969;22;20007;-45
2022/05/05 06:44:01;;;;;;;14.13;7.85;;;;;;;;;;6298309;22;20018;-44
2022/05/05 06:46:27;;;;;;;12.80;7.80;;;;;;;;;;6295954;22;20114;-48
2022/05/05 06:48:53;;;;;;;12.70;7.85;;;;;;;;;;6297665;22;20110;-47
2022/05/05 06:51:18;;;;;;;10.77;8.00;;;;;;;;;;6294992;22;20095;-44
2022/05/05 06:53:43;;;;;;;14.23;8.10;;;;;;;;;;6298279;22;20015;-45
2022/05/05 06:56:09;;;;;;;12.68;6.50;;;;;;;;;;6297027;22;20027;-46
2022/05/05 06:58:34;;;;;;;15.32;7.60;;;;;;;;;;6297176;22;20007;-46
2022/05/05 07:03:43;;;;;;;12.13;6.90;;;;;;;;;;6297406;22;20049;-47
2022/05/05 07:06:10;;;;;;;13.30;6.60;;;;;;;;;;6296063;22;20086;-44
2022/05/05 07:11:24;;;;;;;15.60;6.83;;;;;;;;;;6252412;22;20019;-46
2022/05/05 07:13:49;;;;;;;13.45;7.00;;;;;;;;;;6293535;22;20210;-47
2022/05/05 07:16:15;;;;;;;10.50;5.53;;;;;;;;;;6295490;22;20034;-45
2022/05/05 07:18:40;;;;;;;14.85;6.55;;;;;;;;;;6293104;22;20003;-45
2022/05/05 07:21:06;;;;;;;12.57;7.63;;;;;;;;;;6297882;22;20081;-45
2022/05/05 07:23:31;;;;;;;13.60;7.68;;;;;;;;;;6294804;22;20012;-46
2022/05/05 07:25:57;;;;;;;12.43;7.25;;;;;;;;;;6297396;22;20011;-46
2022/05/05 07:28:22;;;;;;;12.95;6.88;;;;;;;;;;6295652;22;20011;-45
2022/05/05 07:30:47;;;;;;;11.73;6.97;;;;;;;;;;6297280;22;20049;-45
2022/05/05 07:33:12;;;;;;;11.30;6.82;;;;;;;;;;6295602;22;20022;-45
2022/05/05 07:35:38;;;;;;;15.73;7.82;;;;;;;;;;6297416;22;20004;-47
2022/05/05 07:38:04;;;;;;;14.45;8.02;;;;;;;;;;6296272;22;20011;-44
2022/05/05 07:40:29;;;;;;;15.60;6.38;;;;;;;;;;6296471;22;20007;-45
2022/05/05 07:42:54;;;;;;;14.20;7.80;;;;;;;;;;6297483;22;20458;-45
2022/05/05 07:45:20;;;;;;;10.07;6.32;;;;;;;;;;6293434;22;20018;-46
2022/05/05 07:47:46;;;;;;;12.57;6.78;;;;;;;;;;6296663;22;20019;-45
2022/05/05 07:50:11;;;;;;;14.48;7.38;;;;;;;;;;6290904;22;20007;-47
2022/05/05 07:52:37;;;;;;;14.13;6.97;;;;;;;;;;6292110;22;20019;-45
2022/05/05 07:55:02;;;;;;;12.57;6.70;;;;;;;;;;6287945;22;20071;-45
2022/05/05 07:57:27;;;;;;;16.55;7.05;;;;;;;;;;6292397;22;20007;-45
2022/05/05 07:59:53;;;;;;;11.13;6.25;;;;;;;;;;6291126;22;20064;-45
2022/05/05 08:02:19;;;;;;;14.05;6.47;;;;;;;;;;6264385;22;20093;-45
2022/05/05 08:04:44;;;;;;;10.70;6.00;;;;;;;;;;6290900;22;20015;-46
2022/05/05 08:07:10;;;;;;;16.17;6.15;;;;;;;;;;6291573;22;20032;-46
2022/05/05 08:09:36;;;;;;;10.52;6.50;;;;;;;;;;6292090;22;20013;-45
2022/05/05 08:12:02;;;;;;;10.23;6.45;;;;;;;;;;6293252;22;20584;-44
2022/05/05 08:14:27;;;;;;;12.98;5.70;;;;;;;;;;6272634;22;20008;-44
2022/05/05 08:16:53;;;;;;;10.45;6.00;;;;;;;;;;6288842;22;20072;-47
2022/05/05 08:19:20;;;;;;;10.05;5.47;;;;;;;;;;6293120;22;20018;-44
2022/05/05 08:21:45;;;;;;;9.52;5.72;;;;;;;;;;6292802;22;20018;-45
2022/05/05 08:29:38;;;;;;;12.07;5.35;;;;;;;;;;6288420;22;20014;-46
2022/05/05 08:32:04;;;;;;;11.98;4.72;;;;;;;;;;6294683;22;20030;-46
2022/05/05 08:34:29;;;;;;;9.77;4.97;;;;;;;;;;6295124;22;20489;-48
2022/05/05 08:36:54;;;;;;;9.25;5.07;;;;;;;;;;6288000;22;20362;-47
2022/05/05 08:39:20;;;;;;;11.52;4.93;;;;;;;;;;6293346;22;20009;-45
2022/05/05 08:41:46;;;;;;;7.10;3.95;;;;;;;;;;6295067;22;20041;-47
2022/05/05 08:44:11;;;;;;;8.02;4.15;;;;;;;;;;6297026;22;20010;-46
2022/05/05 08:46:38;;;;;;;10.00;3.80;;;;;;;;;;6294007;22;20003;-44
2022/05/05 08:49:04;;;;;;;8.63;3.97;;;;;;;;;;6298972;22;20003;-45
2022/05/05 08:51:34;;;;;;;7.00;3.45;;;;;;;;;;6296320;22;20142;-46
2022/05/05 08:53:59;;;;;;;;;;;;;;;;;;6298976;22;20011;-48
2022/05/05 08:56:25;;;;;;;6.30;3.28;;;;;;;;;;6296250;22;19972;-44
2022/05/05 08:58:50;;;;;;;9.88;3.92;;;;;;;;;;6299289;22;20079;-45
2022/05/05 09:01:15;;;;;;;6.32;4.50;;;;;;;;;;6296371;22;20027;-45
2022/05/05 09:03:41;;;;;;;8.52;4.22;;;;;;;;;;6298469;22;20067;-44
2022/05/05 09:06:07;;;;;;;6.47;3.88;;;;;;;;;;6296449;22;20004;-44
2022/05/05 09:08:33;;;;;;;7.25;4.07;;;;;;;;;;6298663;22;20457;-46
2022/05/05 09:10:59;;;;;;;7.00;3.63;;;;;;;;;;6297576;22;20015;-46
2022/05/05 09:13:30;;;;;;;7.72;3.85;;;;;;;;;;6299356;22;20167;-45
2022/05/05 09:15:55;;;;;;;7.75;3.80;;;;;;;;;;6297476;22;20023;-47
2022/05/05 09:18:22;;;;;;;7.03;4.00;;;;;;;;;;6298464;22;20019;-47
2022/05/05 09:20:48;;;;;;;4.45;3.08;;;;;;;;;;6296959;22;20007;-46
2022/05/05 09:23:32;;;;;;;7.72;3.88;;;;;;;;;;6297922;22;20014;-45
2022/05/05 09:25:58;;;;;;;6.15;3.97;;;;;;;;;;6297944;22;20499;-46
2022/05/05 09:28:24;;;;;;;6.45;3.92;;;;;;;;;;6296666;22;20082;-45
2022/05/05 09:30:50;;;;;;;7.20;4.03;;;;;;;;;;6298941;22;20012;-47
2022/05/05 09:33:36;;;;;;;5.70;4.03;;;;;;;;;;6295241;22;20056;-46
2022/05/05 09:36:02;;;;;;;7.47;3.85;;;;;;;;;;6270177;22;20010;-46
2022/05/05 09:38:46;;;;;;;5.10;3.35;;;;;;;;;;6295157;22;20339;-48
2022/05/05 09:41:12;;;;;;;4.10;3.30;;;;;;;;;;6297874;22;20018;-51
2022/05/05 09:43:37;;;;;;;7.70;3.47;;;;;;;;;;6296677;22;20012;-47
2022/05/05 09:46:22;;;;;;;4.53;2.90;;;;;;;;;;6298525;22;20030;-48
2022/05/05 09:48:48;;;;;;;8.55;3.78;;;;;;;;;;6298426;22;20491;-48
2022/05/05 09:51:14;;;;;;;5.38;2.90;;;;;;;;;;6267377;22;20200;-51
2022/05/05 09:59:14;;;;;;;6.90;3.00;;;;;;;;;;6297936;22;20064;-47
2022/05/05 10:01:40;;;;;;;4.97;2.10;;;;;;;;;;6298189;22;20049;-46
2022/05/05 10:04:07;;;;;;;3.92;2.50;;;;;;;;;;6298030;22;20011;-45
2022/05/05 10:06:34;;;;;;;9.77;2.83;;;;;;;;;;6270466;22;20027;-45
2022/05/05 10:09:00;;;;;;;5.68;3.08;;;;;;;;;;6297073;22;20011;-48
2022/05/05 10:11:26;;;;;;;6.20;3.75;;;;;;;;;;6297680;22;20449;-46
2022/05/05 10:13:51;;;;;;;8.00;3.63;;;;;;;;;;6297073;22;20021;-46
2022/05/05 10:16:18;;;;;;;7.40;2.83;;;;;;;;;;6287166;22;20023;-45
2022/05/05 10:18:43;;;;;;;9.52;3.60;;;;;;;;;;6291942;22;20004;-45
2022/05/05 10:21:10;;;;;;;5.68;2.53;;;;;;;;;;6293772;22;20003;-47
2022/05/05 10:23:49;;;;;;;5.32;2.30;;;;;;;;;;6297444;22;20015;-45
2022/05/05 10:26:20;;;;;;;2.53;2.30;;;;;;;;;;6294195;22;20076;-48
2022/05/05 10:28:47;;;;;;;2.95;2.05;;;;;;;;;;6298076;22;20003;-46
2022/05/05 10:31:31;;;;;;;3.67;2.33;;;;;;;;;;6294770;22;20019;-46
2022/05/05 10:33:58;;;;;;;6.75;2.53;;;;;;;;;;6297798;22;20465;-47
2022/05/05 10:36:23;;;;;;;6.68;2.65;;;;;;;;;;6295276;22;20011;-46
2022/05/05 10:38:50;;;;;;;6.93;2.70;;;;;;;;;;6298376;22;20015;-46
2022/05/05 10:41:34;;;;;;;3.88;2.63;;;;;;;;;;6294735;22;20003;-45
2022/05/05 10:44:19;;;;;;;3.92;2.25;;;;;;;;;;6296145;22;20008;-46
2022/05/05 10:46:50;;;;;;;4.82;2.70;;;;;;;;;;6297748;22;20011;-48
2022/05/05 10:49:30;;;;;;;7.70;3.20;;;;;;;;;;6292517;22;20011;-45
2022/05/05 10:52:19;;;;;;;6.25;2.63;;;;;;;;;;6296662;22;20047;-45
2022/05/05 10:54:45;;;;;;;6.57;2.88;;;;;;;;;;6276312;22;20007;-46
2022/05/05 10:57:23;;;;;;;5.75;3.40;;;;;;;;;;6295953;22;20073;-45
2022/05/05 11:00:07;;;;;;;8.48;3.08;;;;;;;;;;6298575;22;20022;-46
2022/05/05 11:02:32;;;;;;;9.77;3.40;;;;;;;;;;6296857;22;20015;-45
2022/05/05 11:05:17;;;;;;;6.30;3.17;;;;;;;;;;6295818;22;20026;-45
2022/05/05 11:07:43;;;;;;;4.80;2.08;;;;;;;;;;6298152;22;20059;-45
2022/05/05 11:10:28;;;;;;;7.40;2.47;;;;;;;;;;6296573;22;20098;-47
2022/05/05 11:12:54;;;;;;;4.35;2.75;;;;;;;;;;6296944;22;20023;-45
2022/05/05 11:23:49;;;;;;;5.95;3.30;;;;;;;;;;6295904;22;20332;-45
2022/05/05 11:26:16;;;;;;;8.23;2.78;;;;;;;;;;6296719;22;20089;-46
2022/05/05 11:28:41;;;;;;;5.97;1.90;;;;;;;;;;6296208;22;20023;-46
2022/05/05 11:31:19;;;;;;;6.15;2.92;;;;;;;;;;6297123;22;20012;-45
2022/05/05 11:33:52;;;;;;;8.10;2.75;;;;;;;;;;6294567;22;20584;-46
2022/05/05 11:36:17;;;;;;;4.75;2.10;;;;;;;;;;6296263;22;20045;-47
2022/05/05 11:38:42;;;;;;;17.75;2.58;;;;;;;;;;6296336;22;20007;-46
2022/05/05 11:41:08;;;;;;;3.78;2.22;;;;;;;;;;6297642;22;20018;-46
2022/05/05 11:46:18;;;;;;;5.40;2.90;;;;;;;;;;6294878;22;20030;-48
2022/05/05 11:48:43;;;;;;;5.15;2.80;;;;;;;;;;6298055;22;20015;-45
2022/05/05 11:51:09;;;;;;;9.75;3.30;;;;;;;;;;6296065;22;20026;-46
2022/05/05 11:53:35;;;;;;;3.97;1.98;;;;;;;;;;6296149;22;20029;-45
2022/05/05 11:56:00;;;;;;;5.15;2.50;;;;;;;;;;6269399;22;20815;-46
2022/05/05 12:04:00;;;;;;;2.40;1.58;;;;;;;;;;6298051;22;20023;-48
2022/05/05 12:06:26;;;;;;;6.18;2.60;;;;;;;;;;6268997;22;20217;-47
2022/05/05 12:08:51;;;;;;;7.35;2.55;;;;;;;;;;6297851;22;20015;-45
2022/05/05 12:11:17;;;;;;;6.78;2.28;;;;;;;;;;6296566;22;20172;-47
2022/05/05 12:13:42;;;;;;;7.90;1.98;;;;;;;;;;6296226;22;20022;-48
2022/05/05 12:16:08;;;;;;;4.35;2.40;;;;;;;;;;6296675;22;20020;-47
2022/05/05 12:18:48;;;;;;;3.58;1.80;;;;;;;;;;6295724;22;20023;-45
2022/05/05 12:21:18;;;;;;;3.85;1.70;;;;;;;;;;6296575;22;20015;-46
2022/05/05 12:23:44;;;;;;;4.60;1.80;;;;;;;;;;6295694;22;20525;-46
2022/05/05 12:26:09;;;;;;;3.25;1.67;;;;;;;;;;6298643;22;20611;-47
2022/05/05 12:28:48;;;;;;;4.47;2.03;;;;;;;;;;6297237;22;20644;-45
2022/05/05 12:31:14;;;;;;;;;;;;;;;;;;6297439;22;20743;-47
2022/05/05 12:33:39;;;;;;;6.90;2.03;;;;;;;;;;6299746;22;20265;-46
2022/05/05 12:36:11;;;;;;;2.45;1.48;;;;;;;;;;6298450;22;20309;-46
2022/05/05 12:38:36;;;;;;;2.22;1.33;;;;;;;;;;6299211;22;20050;-45
2022/05/05 12:41:08;;;;;;;2.90;2.47;;;;;;;;;;6297697;22;20073;-46
2022/05/05 12:43:34;;;;;;;3.10;1.25;;;;;;;;;;6271413;22;20258;-46
2022/05/05 12:46:02;;;;;;;3.92;1.35;;;;;;;;;;6297050;22;20026;-46
2022/05/05 12:48:28;;;;;;;5.47;1.33;;;;;;;;;;6298634;22;20515;-48
2022/05/05 12:50:54;;;;;;;3.78;1.55;;;;;;;;;;6297898;22;20074;-46
2022/05/05 13:01:46;;;;;;;2.45;1.30;;;;;;;;;;6297814;22;20041;-46
2022/05/05 13:04:14;;;;;;;4.07;1.65;;;;;;;;;;6295683;22;20011;-47
2022/05/05 13:06:41;;;;;;;3.50;1.88;;;;;;;;;;6295714;22;20015;-46
2022/05/05 13:09:08;;;;;;;4.15;1.30;;;;;;;;;;6271956;22;20015;-48
2022/05/05 13:11:33;;;;;;;3.50;1.58;;;;;;;;;;6296440;22;20023;-45
2022/05/05 13:13:58;;;;;;;1.98;1.25;;;;;;;;;;6296772;22;20027;-47
2022/05/05 13:16:27;;;;;;;4.07;1.10;;;;;;;;;;6295874;22;20023;-48
2022/05/05 13:18:52;;;;;;;4.95;1.42;;;;;;;;;;6271951;22;20022;-47
2022/05/05 13:21:17;;;;;;;2.78;1.17;;;;;;;;;;6296805;22;20011;-46
2022/05/05 13:23:43;;;;;;;2.47;1.00;;;;;;;;;;6299308;22;20094;-47
2022/05/05 13:26:10;;;;;;;3.50;1.20;;;;;;;;;;6297698;22;20098;-46
2022/05/05 13:28:36;;;;;;;3.35;0.90;;;;;;;;;;6298363;22;20095;-45
2022/05/05 13:31:01;;;;;;;2.53;1.13;;;;;;;;;;6297541;22;20019;-47
2022/05/05 13:33:26;;;;;;;3.50;1.50;;;;;;;;;;6298123;22;20045;-47
2022/05/05 13:35:51;;;;;;;1.77;1.13;;;;;;;;;;6297305;22;20660;-44
2022/05/05 13:38:20;;;;;;;1.33;1.05;;;;;;;;;;6297744;22;20042;-45
2022/05/05 13:40:45;;;;;;;2.22;1.33;;;;;;;;;;6297942;22;20308;-46
2022/05/05 13:43:10;;;;;;;1.15;1.05;;;;;;;;;;6298021;22;20083;-46
2022/05/05 13:45:36;;;;;;;1.90;1.23;;;;;;;;;;6297815;22;20011;-47
2022/05/05 13:48:01;;;;;;;5.63;1.98;;;;;;;;;;6298288;22;20016;-46
2022/05/05 13:50:26;;;;;;;2.13;1.20;;;;;;;;;;6297395;22;20015;-47
2022/05/05 13:52:52;;;;;;;3.50;1.92;;;;;;;;;;6298514;22;20083;-47
2022/05/05 13:55:17;;;;;;;3.33;1.90;;;;;;;;;;6295831;22;20015;-48
2022/05/05 13:57:43;;;;;;;3.30;1.85;;;;;;;;;;6298480;22;20011;-48
2022/05/05 14:00:09;;;;;;;6.28;1.98;;;;;;;;;;6297961;22;20015;-45
2022/05/05 14:02:34;;;;;;;3.40;1.35;;;;;;;;;;6297889;22;20026;-49
2022/05/05 14:05:00;;;;;;;1.50;1.10;;;;;;;;;;6297811;22;20011;-47
2022/05/05 14:12:53;;;;;;;3.20;1.67;;;;;;;;;;6296671;22;20029;-46
2022/05/05 14:15:19;;;;;;;2.40;1.48;;;;;;;;;;6295896;22;20027;-50
2022/05/05 14:17:44;;;;;;;3.15;1.48;;;;;;;;;;6297686;22;20015;-47
2022/05/05 14:20:10;;;;;;;2.33;1.40;;;;;;;;;;6296644;22;20015;-46
2022/05/05 14:22:35;;;;;;;4.32;1.63;;;;;;;;;;6269741;22;20018;-46
2022/05/05 14:25:00;;;;;;;4.35;1.70;;;;;;;;;;6297231;22;20007;-45
2022/05/05 14:27:26;;;;;;;5.28;1.90;;;;;;;;;;6297015;22;20010;-45
2022/05/05 14:29:51;;;;;;;3.92;1.67;;;;;;;;;;6295805;22;20023;-46
2022/05/05 14:32:16;;;;;;;4.33;1.60;;;;;;;;;;6296766;22;20019;-46
2022/05/05 14:34:42;;;;;;;6.78;2.10;;;;;;;;;;6294426;22;20435;-46
2022/05/05 14:37:10;;;;;;;3.65;1.80;;;;;;;;;;6298016;22;20042;-48
2022/05/05 14:39:35;;;;;;;3.47;1.67;;;;;;;;;;6294794;22;20012;-45
2022/05/05 14:42:01;;;;;;;2.58;1.88;;;;;;;;;;6298364;22;20638;-47
2022/05/05 14:44:28;;;;;;;4.20;1.40;;;;;;;;;;6294516;22;20026;-49
2022/05/05 14:46:53;;;;;;;3.15;1.70;;;;;;;;;;6297587;22;20023;-47
2022/05/05 14:49:19;;;;;;;2.33;1.70;;;;;;;;;;6295202;22;20011;-49
2022/05/05 14:51:44;;;;;;;4.35;2.20;;;;;;;;;;6299178;22;20015;-46
2022/05/05 14:54:09;;;;;;;4.50;1.67;;;;;;;;;;6294440;22;20015;-47
2022/05/05 14:56:35;;;;;;;3.95;1.50;;;;;;;;;;6297474;22;20007;-48
2022/05/05 14:59:02;;;;;;;3.67;1.63;;;;;;;;;;6289166;22;20026;-47
2022/05/05 15:01:29;;;;;;;5.60;1.70;;;;;;;;;;6294121;22;20018;-48
2022/05/05 15:03:54;;;;;;;6.07;2.30;;;;;;;;;;6298658;22;20007;-49
2022/05/05 15:06:20;;;;;;;2.85;1.73;;;;;;;;;;6294004;22;20045;-47
2022/05/05 15:08:45;;;;;;;3.70;1.92;;;;;;;;;;6297007;22;20055;-46
2022/05/05 15:11:10;;;;;;;3.63;1.77;;;;;;;;;;6295818;22;20378;-48
2022/05/05 15:13:35;;;;;;;6.40;1.85;;;;;;;;;;6293734;22;20100;-47
2022/05/05 15:16:01;;;;;;;7.80;2.00;;;;;;;;;;6297101;22;20038;-46
2022/05/05 15:18:26;;;;;;;8.63;2.65;;;;;;;;;;6296474;22;20257;-52
2022/05/05 15:20:53;;;;;;;4.20;1.90;;;;;;;;;;6296337;22;20057;-47
2022/05/05 15:23:19;;;;;;;6.72;2.45;;;;;;;;;;6296595;22;20067;-49
2022/05/05 15:25:44;;;;;;;2.92;2.20;;;;;;;;;;6295914;22;20007;-46
2022/05/05 15:28:10;;;;;;;6.00;2.00;;;;;;;;;;6297457;22;20039;-48
2022/05/05 15:30:35;;;;;;;4.65;1.85;;;;;;;;;;6295737;22;20358;-47
2022/05/05 15:33:01;;;;;;;6.43;2.27;;;;;;;;;;6297341;22;20054;-46
2022/05/05 15:35:27;;;;;;;4.35;1.83;;;;;;;;;;6295033;22;20224;-47
2022/05/05 15:37:52;;;;;;;2.72;2.08;;;;;;;;;;6297701;22;20015;-48